sensor_id;sensor_type;location;lat;lon;timestamp;noise_LAeq;noise_LA_min;noise_LA_max;noise_LA01;noise_LA95
61249;Laerm;47119;49.130;9.218;2023-09-07T00:01:20;47.38;46.05;48.61;;
61249;Laerm;47119;49.130;9.218;2023-09-07T00:03:50;47.37;45.86;48.51;;
61249;Laerm;47119;49.130;9.218;2023-09-07T00:06:17;47.40;46.12;48.54;;
61249;Laerm;47119;49.130;9.218;2023-09-07T00:08:46;47.40;46.21;48.72;;
61249;Laerm;47119;49.130;9.218;2023-09-07T00:11:13;47.38;45.77;48.73;;
61249;Laerm;47119;49.130;9.218;2023-09-07T00:13:44;47.41;46.24;48.79;;
61249;Laerm;47119;49.130;9.218;2023-09-07T00:16:12;47.43;45.81;48.56;;
61249;Laerm;47119;49.130;9.218;2023-09-07T00:18:42;47.42;46.15;48.57;;
61249;Laerm;47119;49.130;9.218;2023-09-07T00:21:12;47.41;46.18;51.01;;
61249;Laerm;47119;49.130;9.218;2023-09-07T00:23:40;47.43;46.10;48.67;;
61249;Laerm;47119;49.130;9.218;2023-09-07T00:26:07;47.40;46.09;48.58;;
61249;Laerm;47119;49.130;9.218;2023-09-07T00:28:45;47.43;46.16;48.84;;
61249;Laerm;47119;49.130;9.218;2023-09-07T00:31:13;47.46;46.22;48.57;;
61249;Laerm;47119;49.130;9.218;2023-09-07T00:33:41;47.42;46.13;48.67;;
61249;Laerm;47119;49.130;9.218;2023-09-07T00:36:08;47.39;46.11;48.56;;
61249;Laerm;47119;49.130;9.218;2023-09-07T00:38:35;47.10;45.87;48.94;;
61249;Laerm;47119;49.130;9.218;2023-09-07T00:41:04;47.09;45.96;48.71;;
61249;Laerm;47119;49.130;9.218;2023-09-07T00:43:34;47.09;45.95;48.26;;
61249;Laerm;47119;49.130;9.218;2023-09-07T00:46:04;47.11;45.81;48.43;;
61249;Laerm;47119;49.130;9.218;2023-09-07T00:48:36;47.11;46.00;49.34;;
61249;Laerm;47119;49.130;9.218;2023-09-07T00:51:03;47.12;45.95;48.19;;
61249;Laerm;47119;49.130;9.218;2023-09-07T00:53:33;47.15;46.00;48.25;;
61249;Laerm;47119;49.130;9.218;2023-09-07T00:56:04;47.10;45.95;48.23;;
61249;Laerm;47119;49.130;9.218;2023-09-07T00:58:34;47.02;45.91;48.07;;
61249;Laerm;47119;49.130;9.218;2023-09-07T01:01:04;47.09;45.69;48.16;;
61249;Laerm;47119;49.130;9.218;2023-09-07T01:03:31;47.04;45.89;48.15;;
61249;Laerm;47119;49.130;9.218;2023-09-07T01:06:07;47.08;45.86;48.22;;
61249;Laerm;47119;49.130;9.218;2023-09-07T01:08:44;47.06;45.95;48.31;;
61249;Laerm;47119;49.130;9.218;2023-09-07T01:11:17;47.07;45.90;48.25;;
61249;Laerm;47119;49.130;9.218;2023-09-07T01:13:53;47.09;45.78;48.14;;
61249;Laerm;47119;49.130;9.218;2023-09-07T01:16:23;47.10;45.87;48.14;;
61249;Laerm;47119;49.130;9.218;2023-09-07T01:18:51;47.12;45.82;48.52;;
61249;Laerm;47119;49.130;9.218;2023-09-07T01:21:25;47.39;46.12;48.65;;
61249;Laerm;47119;49.130;9.218;2023-09-07T01:23:55;47.37;46.00;49.43;;
61249;Laerm;47119;49.130;9.218;2023-09-07T01:26:29;47.36;46.12;48.62;;
61249;Laerm;47119;49.130;9.218;2023-09-07T01:29:01;47.35;46.22;48.63;;
61249;Laerm;47119;49.130;9.218;2023-09-07T01:31:35;47.37;45.98;48.72;;
61249;Laerm;47119;49.130;9.218;2023-09-07T01:34:02;47.40;46.23;48.78;;
61249;Laerm;47119;49.130;9.218;2023-09-07T01:36:32;47.32;46.02;48.68;;
61249;Laerm;47119;49.130;9.218;2023-09-07T05:36:36;47.80;46.03;63.65;;
61249;Laerm;47119;49.130;9.218;2023-09-07T05:39:04;47.78;45.98;64.71;;
61249;Laerm;47119;49.130;9.218;2023-09-07T05:41:31;47.76;46.00;63.74;;
61249;Laerm;47119;49.130;9.218;2023-09-07T05:43:59;47.92;46.23;65.55;;
61249;Laerm;47119;49.130;9.218;2023-09-07T05:46:26;48.07;46.01;62.62;;
61249;Laerm;47119;49.130;9.218;2023-09-07T05:48:54;48.06;45.88;62.51;;
61249;Laerm;47119;49.130;9.218;2023-09-07T05:51:22;47.84;46.06;64.08;;
61249;Laerm;47119;49.130;9.218;2023-09-07T05:53:55;48.12;46.02;62.99;;
61249;Laerm;47119;49.130;9.218;2023-09-07T05:56:23;47.99;46.02;64.67;;
61249;Laerm;47119;49.130;9.218;2023-09-07T05:58:51;48.41;46.14;64.63;;
61249;Laerm;47119;49.130;9.218;2023-09-07T06:01:31;48.14;46.03;63.20;;
61249;Laerm;47119;49.130;9.218;2023-09-07T06:04:14;48.28;45.95;64.98;;
61249;Laerm;47119;49.130;9.218;2023-09-07T06:07:17;48.65;46.00;65.02;;
61249;Laerm;47119;49.130;9.218;2023-09-07T06:09:53;48.91;45.90;65.26;;
61249;Laerm;47119;49.130;9.218;2023-09-07T06:12:39;49.10;45.79;65.12;;
61249;Laerm;47119;49.130;9.218;2023-09-07T06:15:20;48.87;45.89;65.17;;
61249;Laerm;47119;49.130;9.218;2023-09-07T06:17:58;49.39;45.98;65.65;;
61249;Laerm;47119;49.130;9.218;2023-09-07T06:20:42;49.68;45.94;64.68;;
61249;Laerm;47119;49.130;9.218;2023-09-07T06:23:39;50.21;45.82;65.67;;
61249;Laerm;47119;49.130;9.218;2023-09-07T06:26:14;49.99;45.88;66.26;;
61249;Laerm;47119;49.130;9.218;2023-09-07T06:28:43;50.12;46.02;66.01;;
61249;Laerm;47119;49.130;9.218;2023-09-07T06:31:11;50.62;45.93;65.56;;
61249;Laerm;47119;49.130;9.218;2023-09-07T06:33:38;50.51;45.91;66.27;;
61249;Laerm;47119;49.130;9.218;2023-09-07T06:36:05;50.86;45.91;66.42;;
61249;Laerm;47119;49.130;9.218;2023-09-07T06:38:34;49.66;45.86;63.95;;
61249;Laerm;47119;49.130;9.218;2023-09-07T06:41:01;49.56;45.87;64.63;;
61249;Laerm;47119;49.130;9.218;2023-09-07T06:43:30;50.22;45.80;65.79;;
61249;Laerm;47119;49.130;9.218;2023-09-07T06:46:05;50.18;45.93;66.53;;
61249;Laerm;47119;49.130;9.218;2023-09-07T06:48:35;50.90;45.82;67.35;;
61249;Laerm;47119;49.130;9.218;2023-09-07T06:51:05;51.16;45.52;66.97;;
61249;Laerm;47119;49.130;9.218;2023-09-07T06:53:37;50.33;45.53;67.09;;
61249;Laerm;47119;49.130;9.218;2023-09-07T06:56:17;51.24;45.95;68.49;;
61249;Laerm;47119;49.130;9.218;2023-09-07T06:58:50;51.53;45.91;67.57;;
61249;Laerm;47119;49.130;9.218;2023-09-07T07:01:18;51.01;45.83;66.77;;
61249;Laerm;47119;49.130;9.218;2023-09-07T07:03:45;51.20;45.73;66.67;;
61249;Laerm;47119;49.130;9.218;2023-09-07T07:06:13;50.99;45.86;67.07;;
61249;Laerm;47119;49.130;9.218;2023-09-07T07:08:51;50.80;45.85;66.86;;
61249;Laerm;47119;49.130;9.218;2023-09-07T07:11:22;51.51;45.85;67.55;;
61249;Laerm;47119;49.130;9.218;2023-09-07T07:13:52;52.10;45.74;68.77;;
61249;Laerm;47119;49.130;9.218;2023-09-07T07:16:19;52.28;45.67;74.61;;
61249;Laerm;47119;49.130;9.218;2023-09-07T07:18:49;51.94;45.81;68.03;;
61249;Laerm;47119;49.130;9.218;2023-09-07T07:21:16;52.61;45.95;70.94;;
61249;Laerm;47119;49.130;9.218;2023-09-07T07:23:44;52.62;45.91;72.73;;
61249;Laerm;47119;49.130;9.218;2023-09-07T07:26:11;52.49;45.83;68.91;;
61249;Laerm;47119;49.130;9.218;2023-09-07T07:28:38;53.58;45.96;71.91;;
61249;Laerm;47119;49.130;9.218;2023-09-07T07:31:12;52.79;45.74;69.52;;
61249;Laerm;47119;49.130;9.218;2023-09-07T07:33:43;53.38;46.00;68.35;;
61249;Laerm;47119;49.130;9.218;2023-09-07T07:36:22;53.07;45.80;69.49;;
61249;Laerm;47119;49.130;9.218;2023-09-07T07:51:39;50.61;45.72;68.75;;
61249;Laerm;47119;49.130;9.218;2023-09-07T07:53:27;47.99;45.72;66.59;;
61249;Laerm;47119;49.130;9.218;2023-09-07T07:56:55;48.07;46.00;68.45;;
61249;Laerm;47119;49.130;9.218;2023-09-07T08:00:43;48.17;45.75;66.98;;
61249;Laerm;47119;49.130;9.218;2023-09-07T08:04:09;48.32;45.88;66.70;;
61249;Laerm;47119;49.130;9.218;2023-09-07T09:34:43;47.71;45.15;68.19;;
61249;Laerm;47119;49.130;9.218;2023-09-07T11:23:14;51.12;45.24;72.73;;
61249;Laerm;47119;49.130;9.218;2023-09-07T13:37:31;48.41;45.07;71.27;;
61249;Laerm;47119;49.130;9.218;2023-09-07T13:43:49;47.58;45.01;70.98;;
61249;Laerm;47119;49.130;9.218;2023-09-07T13:46:29;47.59;45.15;71.55;;
61249;Laerm;47119;49.130;9.218;2023-09-07T13:49:56;48.59;45.03;69.52;;
61249;Laerm;47119;49.130;9.218;2023-09-07T16:08:53;46.98;45.30;62.21;;
61249;Laerm;47119;49.130;9.218;2023-09-07T16:12:29;47.09;45.34;67.69;;
61249;Laerm;47119;49.130;9.218;2023-09-07T16:14:57;47.23;45.34;68.08;;
61249;Laerm;47119;49.130;9.218;2023-09-07T16:18:13;47.29;45.36;66.16;;
61249;Laerm;47119;49.130;9.218;2023-09-07T16:20:32;47.08;45.29;66.66;;
61249;Laerm;47119;49.130;9.218;2023-09-07T16:23:21;46.78;45.19;66.08;;
61249;Laerm;47119;49.130;9.218;2023-09-07T16:26:17;47.16;45.23;67.47;;
61249;Laerm;47119;49.130;9.218;2023-09-07T16:28:46;47.01;45.37;67.58;;
61249;Laerm;47119;49.130;9.218;2023-09-07T16:31:41;47.18;45.53;65.07;;
61249;Laerm;47119;49.130;9.218;2023-09-07T16:34:15;47.13;45.41;67.51;;
61249;Laerm;47119;49.130;9.218;2023-09-07T18:39:29;46.95;45.71;58.49;;
